createdAt,value
2023-02-17T00:00:19.956Z,17.89
2023-02-17T00:00:51.343Z,17.89
2023-02-17T00:01:22.782Z,17.88
2023-02-17T00:01:54.209Z,17.88
2023-02-17T00:02:25.746Z,17.88
2023-02-17T00:02:57.194Z,17.87
2023-02-17T00:03:28.602Z,17.88
2023-02-17T00:04:00.116Z,17.88
2023-02-17T00:04:31.600Z,17.87
2023-02-17T00:05:03.022Z,17.86
2023-02-17T00:05:34.422Z,17.88
2023-02-17T00:06:06.044Z,17.86
2023-02-17T00:06:37.593Z,17.87
2023-02-17T00:07:09.002Z,17.86
2023-02-17T00:07:40.432Z,17.84
2023-02-17T00:08:11.841Z,17.85
2023-02-17T00:08:43.278Z,17.85
2023-02-17T00:09:14.684Z,17.84
2023-02-17T00:09:46.074Z,17.84
2023-02-17T00:10:17.478Z,17.84
2023-02-17T00:10:48.883Z,17.84
2023-02-17T00:11:20.295Z,17.83
2023-02-17T00:11:51.736Z,17.83
2023-02-17T00:12:23.143Z,17.82
2023-02-17T00:12:54.569Z,17.83
2023-02-17T00:13:25.981Z,17.83
2023-02-17T00:13:57.420Z,17.80
2023-02-17T00:14:28.818Z,17.81
2023-02-17T00:15:00.219Z,17.81
2023-02-17T00:15:31.732Z,17.81
2023-02-17T00:16:03.217Z,17.81
2023-02-17T00:16:34.735Z,17.81
2023-02-17T00:17:06.130Z,17.80
2023-02-17T00:17:37.557Z,17.81
2023-02-17T00:18:08.956Z,17.79
2023-02-17T00:18:40.398Z,17.79
2023-02-17T00:19:11.792Z,17.80
2023-02-17T00:19:43.183Z,17.78
2023-02-17T00:20:14.579Z,17.78
2023-02-17T00:20:46.027Z,17.77
2023-02-17T00:21:17.446Z,17.77
2023-02-17T00:21:48.863Z,17.76
2023-02-17T00:22:20.257Z,17.76
2023-02-17T00:22:51.674Z,17.75
2023-02-17T00:23:23.097Z,17.73
2023-02-17T00:23:54.533Z,17.74
2023-02-17T00:24:25.953Z,17.74
2023-02-17T00:24:57.375Z,17.73
2023-02-17T00:25:28.768Z,17.73
2023-02-17T00:26:00.217Z,17.73
2023-02-17T00:26:31.608Z,17.73
2023-02-17T00:27:03.004Z,17.73
2023-02-17T00:27:34.417Z,17.71
2023-02-17T00:28:05.832Z,17.71
2023-02-17T00:28:37.238Z,17.72
2023-02-17T00:29:08.644Z,17.70
2023-02-17T00:29:40.095Z,17.72
2023-02-17T00:30:11.533Z,17.72
2023-02-17T00:30:42.969Z,17.71
2023-02-17T00:31:14.494Z,17.72
2023-02-17T00:31:46.045Z,17.72
2023-02-17T00:32:17.548Z,17.71
2023-02-17T00:32:48.957Z,17.71
2023-02-17T00:33:20.352Z,17.71
2023-02-17T00:33:51.742Z,17.71
2023-02-17T00:34:23.146Z,17.71
2023-02-17T00:34:54.539Z,17.70
2023-02-17T00:35:25.942Z,17.70
2023-02-17T00:35:57.345Z,17.69
2023-02-17T00:36:28.769Z,17.69
2023-02-17T00:37:00.182Z,17.69
2023-02-17T00:37:31.584Z,17.70
2023-02-17T00:38:02.992Z,17.68
2023-02-17T00:38:34.403Z,17.68
2023-02-17T00:39:05.796Z,17.69
2023-02-17T00:39:37.187Z,17.68
2023-02-17T00:40:08.630Z,17.68
2023-02-17T00:40:40.047Z,17.66
2023-02-17T00:41:11.446Z,17.67
2023-02-17T00:41:42.892Z,17.67
2023-02-17T00:42:14.314Z,17.68
2023-02-17T00:42:45.740Z,17.66
2023-02-17T00:43:17.149Z,17.66
2023-02-17T00:43:48.553Z,17.66
2023-02-17T00:44:20.170Z,17.66
2023-02-17T00:44:51.626Z,17.66
2023-02-17T00:45:23.027Z,17.64
2023-02-17T00:45:54.416Z,17.63
2023-02-17T00:46:25.860Z,17.64
2023-02-17T00:46:57.320Z,17.65
2023-02-17T00:47:28.748Z,17.64
2023-02-17T00:48:00.185Z,17.63
2023-02-17T00:48:31.611Z,17.63
2023-02-17T00:49:03.054Z,17.63
2023-02-17T00:49:34.479Z,17.63
2023-02-17T00:50:05.894Z,17.62
2023-02-17T00:50:37.307Z,17.63
2023-02-17T00:51:08.717Z,17.62
2023-02-17T00:51:40.123Z,17.63
2023-02-17T00:52:11.694Z,17.62
2023-02-17T00:52:43.087Z,17.63
2023-02-17T00:53:14.487Z,17.61
2023-02-17T00:53:45.892Z,17.61
2023-02-17T00:54:17.313Z,17.61
2023-02-17T00:54:48.722Z,17.60
2023-02-17T00:55:20.120Z,17.61
2023-02-17T00:55:51.534Z,17.60
2023-02-17T00:56:22.953Z,17.61
2023-02-17T00:56:54.384Z,17.61
2023-02-17T00:57:25.834Z,17.60
2023-02-17T00:57:57.253Z,17.60
2023-02-17T00:58:28.658Z,17.60
2023-02-17T00:59:00.086Z,17.60
2023-02-17T00:59:31.483Z,17.60
2023-02-17T01:00:02.897Z,17.59
2023-02-17T01:00:34.310Z,17.60
2023-02-17T01:01:05.729Z,17.60
2023-02-17T01:01:37.160Z,17.59
2023-02-17T01:02:08.646Z,17.58
2023-02-17T01:02:40.067Z,17.58
2023-02-17T01:03:11.474Z,17.57
2023-02-17T01:03:42.867Z,17.56
2023-02-17T01:04:14.273Z,17.56
2023-02-17T01:04:45.723Z,17.56
2023-02-17T01:05:17.171Z,17.56
2023-02-17T01:05:48.588Z,17.55
2023-02-17T01:06:20.017Z,17.57
2023-02-17T01:06:51.411Z,17.56
2023-02-17T01:07:22.853Z,17.56
2023-02-17T01:07:54.284Z,17.56
2023-02-17T01:08:25.692Z,17.56
2023-02-17T01:08:57.117Z,17.55
2023-02-17T01:09:28.536Z,17.55
2023-02-17T01:09:59.936Z,17.54
2023-02-17T01:10:31.359Z,17.53
2023-02-17T01:11:02.764Z,17.54
2023-02-17T01:11:34.173Z,17.53
2023-02-17T01:12:05.592Z,17.53
2023-02-17T01:12:37.029Z,17.53
2023-02-17T01:13:08.465Z,17.53
2023-02-17T01:13:39.882Z,17.53
2023-02-17T01:14:11.287Z,17.53
2023-02-17T01:14:42.703Z,17.52
2023-02-17T01:15:14.096Z,17.51
2023-02-17T01:15:45.543Z,17.52
2023-02-17T01:16:16.998Z,17.52
2023-02-17T01:16:48.432Z,17.51
2023-02-17T01:17:19.838Z,17.50
2023-02-17T01:17:51.249Z,17.50
2023-02-17T01:18:22.678Z,17.51
2023-02-17T01:18:54.090Z,17.49
2023-02-17T01:19:25.505Z,17.49
2023-02-17T01:19:56.890Z,17.48
2023-02-17T01:20:28.294Z,17.48
2023-02-17T01:20:59.689Z,17.46
2023-02-17T01:21:31.089Z,17.47
2023-02-17T01:22:02.483Z,17.47
2023-02-17T01:22:33.948Z,17.47
2023-02-17T01:23:05.369Z,17.47
2023-02-17T01:23:36.806Z,17.47
2023-02-17T01:24:08.206Z,17.47
2023-02-17T01:24:39.611Z,17.47
2023-02-17T01:25:11.034Z,17.46
2023-02-17T01:25:42.611Z,17.46
2023-02-17T01:26:14.176Z,17.46
2023-02-17T01:26:45.615Z,17.46
2023-02-17T01:27:17.009Z,17.46
2023-02-17T01:27:48.447Z,17.46
2023-02-17T01:28:19.848Z,17.45
2023-02-17T01:28:51.319Z,17.45
2023-02-17T01:29:22.735Z,17.44
2023-02-17T01:29:54.309Z,17.44
2023-02-17T01:30:25.820Z,17.43
2023-02-17T01:30:57.319Z,17.44
2023-02-17T01:31:28.826Z,17.44
2023-02-17T01:32:00.333Z,17.43
2023-02-17T01:32:31.765Z,17.43
2023-02-17T01:33:03.197Z,17.43
2023-02-17T01:33:34.613Z,17.42
2023-02-17T01:34:06.031Z,17.43
2023-02-17T01:34:37.447Z,17.45
2023-02-17T01:35:08.879Z,17.43
2023-02-17T01:35:40.302Z,17.43
2023-02-17T01:36:11.724Z,17.43
2023-02-17T01:36:43.134Z,17.43
2023-02-17T01:37:14.522Z,17.43
2023-02-17T01:37:45.906Z,17.42
2023-02-17T01:38:17.342Z,17.41
2023-02-17T01:38:48.744Z,17.42
2023-02-17T01:39:20.194Z,17.42
2023-02-17T01:39:51.597Z,17.42
2023-02-17T01:40:23.011Z,17.42
2023-02-17T01:40:54.431Z,17.42
2023-02-17T01:41:25.832Z,17.42
2023-02-17T01:41:57.244Z,17.42
2023-02-17T01:42:28.658Z,17.41
2023-02-17T01:43:00.061Z,17.41
2023-02-17T01:43:31.498Z,17.41
2023-02-17T01:44:02.895Z,17.40
2023-02-17T01:44:34.327Z,17.41
2023-02-17T01:45:05.746Z,17.40
2023-02-17T01:45:37.148Z,17.40
2023-02-17T01:46:08.554Z,17.41
2023-02-17T01:46:39.966Z,17.40
2023-02-17T01:47:11.399Z,17.38
2023-02-17T01:47:42.809Z,17.38
2023-02-17T01:48:14.220Z,17.39
2023-02-17T01:48:45.635Z,17.39
2023-02-17T01:49:17.051Z,17.38
2023-02-17T01:49:48.467Z,17.38
2023-02-17T01:50:19.977Z,17.38
2023-02-17T01:50:51.382Z,17.38
2023-02-17T01:51:22.795Z,17.39
2023-02-17T01:51:54.206Z,17.37
2023-02-17T01:52:25.628Z,17.36
2023-02-17T01:52:57.035Z,17.37
2023-02-17T01:53:28.446Z,17.37
2023-02-17T01:53:59.892Z,17.36
2023-02-17T01:54:31.279Z,17.34
2023-02-17T01:55:02.769Z,17.36
2023-02-17T01:55:34.203Z,17.36
2023-02-17T01:56:05.833Z,17.34
2023-02-17T01:56:37.543Z,17.34
2023-02-17T01:57:09.013Z,17.33
2023-02-17T01:57:40.423Z,17.32
2023-02-17T01:58:11.814Z,17.33
2023-02-17T01:58:43.230Z,17.33
2023-02-17T01:59:14.712Z,17.34
2023-02-17T01:59:46.108Z,17.34
2023-02-17T02:00:17.537Z,17.33
2023-02-17T02:00:48.926Z,17.34
2023-02-17T02:01:20.351Z,17.33
2023-02-17T02:01:51.864Z,17.33
2023-02-17T02:02:23.381Z,17.34
2023-02-17T02:02:54.910Z,17.33
2023-02-17T02:03:26.472Z,17.33
2023-02-17T02:03:57.866Z,17.33
2023-02-17T02:04:29.271Z,17.32
2023-02-17T02:05:00.864Z,17.31
2023-02-17T02:05:32.324Z,17.32
2023-02-17T02:06:03.928Z,17.31
2023-02-17T02:06:35.514Z,17.31
2023-02-17T02:07:06.938Z,17.30
2023-02-17T02:07:38.332Z,17.30
2023-02-17T02:08:09.769Z,17.30
2023-02-17T02:08:41.186Z,17.29
2023-02-17T02:09:12.578Z,17.31
2023-02-17T02:09:43.986Z,17.29
2023-02-17T02:10:15.389Z,17.29
2023-02-17T02:10:46.852Z,17.29
2023-02-17T02:11:18.242Z,17.28
2023-02-17T02:11:49.657Z,17.28
2023-02-17T02:12:21.047Z,17.29
2023-02-17T02:12:52.450Z,17.29
2023-02-17T02:13:23.864Z,17.29
2023-02-17T02:13:55.290Z,17.27
2023-02-17T02:14:26.698Z,17.28
2023-02-17T02:14:58.123Z,17.28
2023-02-17T02:15:29.541Z,17.28
2023-02-17T02:16:00.995Z,17.27
2023-02-17T02:16:32.456Z,17.26
2023-02-17T02:17:03.894Z,17.27
2023-02-17T02:17:35.314Z,17.27
2023-02-17T02:18:06.731Z,17.27
2023-02-17T02:18:38.149Z,17.27
2023-02-17T02:19:09.554Z,17.26
2023-02-17T02:19:41.028Z,17.27
2023-02-17T02:20:12.439Z,17.26
2023-02-17T02:20:43.861Z,17.26
2023-02-17T02:21:15.270Z,17.25
2023-02-17T02:21:46.690Z,17.25
2023-02-17T02:22:18.111Z,17.26
2023-02-17T02:22:49.502Z,17.25
2023-02-17T02:23:20.886Z,17.25
2023-02-17T02:23:52.325Z,17.23
2023-02-17T02:24:23.741Z,17.23
2023-02-17T02:24:55.190Z,17.24
2023-02-17T02:25:26.586Z,17.25
2023-02-17T02:25:57.992Z,17.24
2023-02-17T02:26:29.414Z,17.25
2023-02-17T02:27:00.825Z,17.24
2023-02-17T02:27:32.228Z,17.24
2023-02-17T02:28:03.642Z,17.23
2023-02-17T02:28:35.036Z,17.22
2023-02-17T02:29:06.456Z,17.22
2023-02-17T02:29:37.859Z,17.20
2023-02-17T02:30:09.334Z,17.22
2023-02-17T02:30:40.881Z,17.21
2023-02-17T02:31:12.500Z,17.20
2023-02-17T02:31:43.996Z,17.22
2023-02-17T02:32:15.483Z,17.21
2023-02-17T02:32:47.022Z,17.20
2023-02-17T02:33:18.416Z,17.20
2023-02-17T02:33:49.835Z,17.20
2023-02-17T02:34:21.224Z,17.18
2023-02-17T02:34:52.623Z,17.19
2023-02-17T02:35:24.072Z,17.18
2023-02-17T02:35:55.474Z,17.18
2023-02-17T02:36:26.844Z,17.18
2023-02-17T02:36:58.286Z,17.18
2023-02-17T02:37:29.678Z,17.17
2023-02-17T02:38:01.086Z,17.17
2023-02-17T02:38:32.493Z,17.17
2023-02-17T02:39:03.896Z,17.18
2023-02-17T02:39:35.316Z,17.18
2023-02-17T02:40:06.715Z,17.17
2023-02-17T02:40:38.151Z,17.18
2023-02-17T02:41:09.559Z,17.17
2023-02-17T02:41:40.961Z,17.17
2023-02-17T02:42:12.413Z,17.18
2023-02-17T02:42:43.856Z,17.17
2023-02-17T02:43:15.252Z,17.16
2023-02-17T02:43:46.666Z,17.15
2023-02-17T02:44:18.075Z,17.15
2023-02-17T02:44:49.465Z,17.14
2023-02-17T02:45:20.875Z,17.15
2023-02-17T02:45:52.322Z,17.13
2023-02-17T02:46:23.733Z,17.14
2023-02-17T02:46:55.123Z,17.14
2023-02-17T02:47:26.567Z,17.14
2023-02-17T02:47:57.965Z,17.14
2023-02-17T02:48:29.386Z,17.14
2023-02-17T02:49:00.801Z,17.14
2023-02-17T02:49:32.209Z,17.13
2023-02-17T02:50:03.614Z,17.14
2023-02-17T02:50:35.027Z,17.13
2023-02-17T02:51:06.455Z,17.14
2023-02-17T02:51:37.858Z,17.13
2023-02-17T02:52:09.299Z,17.12
2023-02-17T02:52:40.745Z,17.12
2023-02-17T02:53:12.148Z,17.10
2023-02-17T02:53:43.565Z,17.12
2023-02-17T02:54:14.955Z,17.11
2023-02-17T02:54:46.366Z,17.12
2023-02-17T02:55:17.785Z,17.11
2023-02-17T02:55:49.513Z,17.12
2023-02-17T02:56:20.933Z,17.12
2023-02-17T02:56:52.359Z,17.11
2023-02-17T02:57:23.764Z,17.11
2023-02-17T02:57:55.202Z,17.12
2023-02-17T02:58:26.626Z,17.12
2023-02-17T02:58:58.056Z,17.10
2023-02-17T02:59:29.931Z,17.11
2023-02-17T03:00:01.497Z,17.11
2023-02-17T03:00:32.910Z,17.08
2023-02-17T03:01:04.383Z,17.09
2023-02-17T03:01:35.813Z,17.09
2023-02-17T03:02:07.224Z,17.09
2023-02-17T03:02:38.647Z,17.09
2023-02-17T03:03:10.168Z,17.08
2023-02-17T03:03:41.646Z,17.09
2023-02-17T03:04:13.102Z,17.10
2023-02-17T03:04:44.527Z,17.09
2023-02-17T03:05:15.934Z,17.09
2023-02-17T03:05:47.329Z,17.09
2023-02-17T03:06:18.735Z,17.08
2023-02-17T03:06:50.135Z,17.09
2023-02-17T03:07:21.543Z,17.09
2023-02-17T03:07:52.927Z,17.08
2023-02-17T03:08:24.360Z,17.08
2023-02-17T03:08:55.771Z,17.08
2023-02-17T03:09:27.184Z,17.08
2023-02-17T03:09:58.580Z,17.09
2023-02-17T03:10:29.982Z,17.07
2023-02-17T03:11:01.387Z,17.07
2023-02-17T03:11:32.815Z,17.07
2023-02-17T03:12:04.219Z,17.06
2023-02-17T03:12:35.622Z,17.05
2023-02-17T03:13:07.038Z,17.06
2023-02-17T03:13:38.481Z,17.06
2023-02-17T03:14:09.891Z,17.04
2023-02-17T03:14:41.282Z,17.05
2023-02-17T03:15:12.685Z,17.05
2023-02-17T03:15:44.074Z,17.04
2023-02-17T03:16:15.507Z,17.05
2023-02-17T03:16:46.986Z,17.04
2023-02-17T03:17:18.388Z,17.05
2023-02-17T03:17:49.782Z,17.05
2023-02-17T03:18:21.210Z,17.04
2023-02-17T03:18:52.646Z,17.04
2023-02-17T03:19:24.067Z,17.04
2023-02-17T03:19:55.463Z,17.03
2023-02-17T03:20:26.881Z,17.04
2023-02-17T03:20:58.281Z,17.03
2023-02-17T03:21:29.675Z,17.03
2023-02-17T03:22:01.091Z,17.01
2023-02-17T03:22:32.513Z,17.02
2023-02-17T03:23:03.935Z,17.02
2023-02-17T03:23:35.324Z,17.00
2023-02-17T03:24:06.761Z,17.01
2023-02-17T03:24:38.154Z,17.02
2023-02-17T03:25:09.572Z,17.02
2023-02-17T03:25:40.976Z,17.02
2023-02-17T03:26:12.391Z,17.02
2023-02-17T03:26:43.793Z,17.01
2023-02-17T03:27:15.207Z,17.02
2023-02-17T03:27:46.651Z,17.01
2023-02-17T03:28:18.041Z,17.01
2023-02-17T03:28:49.461Z,17.02
2023-02-17T03:29:20.888Z,17.01
2023-02-17T03:29:52.282Z,17.01
2023-02-17T03:30:23.746Z,17.02
2023-02-17T03:30:55.182Z,17.01
2023-02-17T03:31:27.991Z,17.00
2023-02-17T03:32:00.490Z,17.00
2023-02-17T03:32:31.975Z,17.00
2023-02-17T03:33:03.370Z,17.00
2023-02-17T03:33:34.769Z,16.99
2023-02-17T03:34:06.176Z,16.99
2023-02-17T03:34:37.606Z,16.99
2023-02-17T03:35:09.010Z,16.98
2023-02-17T03:35:40.453Z,16.98
2023-02-17T03:36:11.846Z,17.00
2023-02-17T03:36:43.251Z,16.98
2023-02-17T03:37:14.658Z,16.98
2023-02-17T03:37:46.052Z,16.97
2023-02-17T03:38:17.466Z,16.97
2023-02-17T03:38:48.871Z,16.97
2023-02-17T03:39:20.263Z,16.99
2023-02-17T03:39:51.657Z,16.97
2023-02-17T03:40:23.074Z,16.97
2023-02-17T03:40:54.520Z,16.97
2023-02-17T03:41:25.929Z,16.96
2023-02-17T03:41:57.329Z,16.96
2023-02-17T03:42:28.735Z,16.97
2023-02-17T03:43:00.160Z,16.98
2023-02-17T03:43:31.563Z,16.97
2023-02-17T03:44:02.969Z,16.97
2023-02-17T03:44:34.400Z,16.96
2023-02-17T03:45:05.798Z,16.96
2023-02-17T03:45:37.225Z,16.96
2023-02-17T03:46:09.017Z,16.97
2023-02-17T03:46:40.967Z,16.95
2023-02-17T03:47:12.386Z,16.95
2023-02-17T03:47:43.856Z,16.95
2023-02-17T03:48:15.269Z,16.95
2023-02-17T03:48:46.734Z,16.95
2023-02-17T03:49:18.151Z,16.94
2023-02-17T03:49:49.586Z,16.93
2023-02-17T03:50:21.003Z,16.95
2023-02-17T03:50:52.407Z,16.93
2023-02-17T03:51:23.826Z,16.94
2023-02-17T03:51:55.240Z,16.93
2023-02-17T03:52:26.649Z,16.92
2023-02-17T03:52:58.046Z,16.93
2023-02-17T03:53:29.453Z,16.92
2023-02-17T03:54:00.850Z,16.92
2023-02-17T03:54:32.265Z,16.92
2023-02-17T03:55:03.674Z,16.92
2023-02-17T03:55:35.064Z,16.92
2023-02-17T03:56:06.824Z,16.93
2023-02-17T03:56:38.382Z,16.92
2023-02-17T03:57:09.798Z,16.91
2023-02-17T03:57:41.187Z,16.89
2023-02-17T03:58:12.593Z,16.89
2023-02-17T03:58:44.033Z,16.89
2023-02-17T03:59:15.491Z,16.89
2023-02-17T03:59:46.908Z,16.88
2023-02-17T04:00:18.315Z,16.89
2023-02-17T04:00:49.715Z,16.88
2023-02-17T04:01:21.184Z,16.88
2023-02-17T04:01:52.632Z,16.88
2023-02-17T04:02:24.043Z,16.88
2023-02-17T04:02:55.462Z,16.87
2023-02-17T04:03:26.854Z,16.88
2023-02-17T04:03:58.262Z,16.88
2023-02-17T04:04:29.727Z,16.87
2023-02-17T04:05:01.142Z,16.88
2023-02-17T04:05:32.546Z,16.88
2023-02-17T04:06:04.163Z,16.88
2023-02-17T04:06:35.945Z,16.89
2023-02-17T04:07:07.374Z,16.88
2023-02-17T04:07:38.764Z,16.88
2023-02-17T04:08:10.194Z,16.88
2023-02-17T04:08:41.630Z,16.87
2023-02-17T04:09:13.032Z,16.86
2023-02-17T04:09:44.466Z,16.87
2023-02-17T04:10:15.861Z,16.85
2023-02-17T04:10:47.280Z,16.86
2023-02-17T04:11:18.681Z,16.86
2023-02-17T04:11:50.095Z,16.86
2023-02-17T04:12:21.505Z,16.85
2023-02-17T04:12:52.906Z,16.86
2023-02-17T04:13:24.305Z,16.84
2023-02-17T04:13:55.734Z,16.86
2023-02-17T04:14:27.156Z,16.84
2023-02-17T04:14:58.582Z,16.85
2023-02-17T04:15:30.037Z,16.82
2023-02-17T04:16:01.568Z,16.85
2023-02-17T04:16:33.029Z,16.84
2023-02-17T04:17:04.434Z,16.84
2023-02-17T04:17:35.831Z,16.84
2023-02-17T04:18:07.219Z,16.84
2023-02-17T04:18:38.634Z,16.83
2023-02-17T04:19:10.054Z,16.84
2023-02-17T04:19:41.467Z,16.85
2023-02-17T04:20:12.892Z,16.84
2023-02-17T04:20:44.318Z,16.85
2023-02-17T04:21:15.736Z,16.83
2023-02-17T04:21:47.158Z,16.83
2023-02-17T04:22:18.590Z,16.82
2023-02-17T04:22:49.998Z,16.84
2023-02-17T04:23:21.434Z,16.83
2023-02-17T04:23:52.839Z,16.83
2023-02-17T04:24:24.281Z,16.83
2023-02-17T04:24:55.692Z,16.82
2023-02-17T04:25:27.118Z,16.80
2023-02-17T04:25:58.517Z,16.81
2023-02-17T04:26:29.952Z,16.80
2023-02-17T04:27:01.362Z,16.81
2023-02-17T04:27:32.757Z,16.80
2023-02-17T04:28:04.179Z,16.80
2023-02-17T04:28:35.588Z,16.81
2023-02-17T04:29:06.989Z,16.80
2023-02-17T04:29:38.401Z,16.79
2023-02-17T04:30:12.227Z,16.79
2023-02-17T04:30:43.839Z,16.79
2023-02-17T04:31:15.359Z,16.76
2023-02-17T04:31:46.962Z,16.79
2023-02-17T04:32:18.415Z,16.79
2023-02-17T04:32:49.815Z,16.79
2023-02-17T04:33:21.202Z,16.79
2023-02-17T04:33:52.643Z,16.77
2023-02-17T04:34:24.062Z,16.75
2023-02-17T04:34:55.470Z,16.77
2023-02-17T04:35:26.869Z,16.77
2023-02-17T04:35:58.271Z,16.75
2023-02-17T04:36:29.688Z,16.76
2023-02-17T04:37:01.102Z,16.78
2023-02-17T04:37:32.512Z,16.77
2023-02-17T04:38:03.930Z,16.76
2023-02-17T04:38:35.339Z,16.77
2023-02-17T04:39:06.767Z,16.75
2023-02-17T04:39:38.169Z,16.75
2023-02-17T04:40:09.585Z,16.75
2023-02-17T04:40:41.005Z,16.76
2023-02-17T04:41:12.461Z,16.75
2023-02-17T04:41:43.906Z,16.75
2023-02-17T04:42:15.300Z,16.75
2023-02-17T04:42:46.711Z,16.74
2023-02-17T04:43:18.122Z,16.74
2023-02-17T04:43:49.535Z,16.75
2023-02-17T04:44:20.955Z,16.74
2023-02-17T04:44:52.346Z,16.75
2023-02-17T04:45:23.755Z,16.74
2023-02-17T04:45:55.215Z,16.73
2023-02-17T04:46:26.728Z,16.72
2023-02-17T04:46:58.242Z,16.74
2023-02-17T04:47:29.631Z,16.73
2023-02-17T04:48:01.028Z,16.72
2023-02-17T04:48:32.443Z,16.72
2023-02-17T04:49:03.900Z,16.73
2023-02-17T04:49:35.316Z,16.73
2023-02-17T04:50:06.709Z,16.74
2023-02-17T04:50:38.114Z,16.73
2023-02-17T04:51:09.504Z,16.73
2023-02-17T04:51:40.925Z,16.72
2023-02-17T04:52:12.331Z,16.73
2023-02-17T04:52:43.759Z,16.71
2023-02-17T04:53:15.170Z,16.72
2023-02-17T04:53:46.563Z,16.71
2023-02-17T04:54:18.009Z,16.72
2023-02-17T04:54:49.410Z,16.70
2023-02-17T04:55:20.800Z,16.71
2023-02-17T04:55:52.203Z,16.72
2023-02-17T04:56:23.601Z,16.70
2023-02-17T04:56:55.000Z,16.72
2023-02-17T04:57:26.407Z,16.71
2023-02-17T04:57:57.835Z,16.69
2023-02-17T04:58:29.231Z,16.71
2023-02-17T04:59:00.680Z,16.70
2023-02-17T04:59:32.072Z,16.71
2023-02-17T05:00:03.494Z,16.70
2023-02-17T05:00:34.920Z,16.69
2023-02-17T05:01:06.369Z,16.70
2023-02-17T05:01:37.829Z,16.69
2023-02-17T05:02:09.253Z,16.70
2023-02-17T05:02:40.676Z,16.70
2023-02-17T05:03:12.094Z,16.70
2023-02-17T05:03:43.539Z,16.69
2023-02-17T05:04:14.977Z,16.67
2023-02-17T05:04:46.438Z,16.69
2023-02-17T05:05:17.860Z,16.69
2023-02-17T05:05:49.284Z,16.69
2023-02-17T05:06:20.692Z,16.69
2023-02-17T05:06:52.084Z,16.67
2023-02-17T05:07:23.510Z,16.69
2023-02-17T05:07:54.897Z,16.68
2023-02-17T05:08:26.326Z,16.67
2023-02-17T05:08:57.728Z,16.68
2023-02-17T05:09:29.156Z,16.68
2023-02-17T05:10:00.546Z,16.67
2023-02-17T05:10:31.943Z,16.68
2023-02-17T05:11:03.363Z,16.68
2023-02-17T05:11:34.757Z,16.67
2023-02-17T05:12:06.154Z,16.66
2023-02-17T05:12:37.548Z,16.65
2023-02-17T05:13:08.954Z,16.66
2023-02-17T05:13:40.378Z,16.65
2023-02-17T05:14:11.815Z,16.65
2023-02-17T05:14:43.211Z,16.65
2023-02-17T05:15:14.652Z,16.65
2023-02-17T05:15:46.102Z,16.65
2023-02-17T05:16:17.584Z,16.64
2023-02-17T05:16:49.063Z,16.64
2023-02-17T05:17:20.479Z,16.64
2023-02-17T05:17:51.897Z,16.64
2023-02-17T05:18:23.282Z,16.63
2023-02-17T05:18:54.701Z,16.64
2023-02-17T05:19:26.138Z,16.64
2023-02-17T05:19:57.552Z,16.64
2023-02-17T05:20:28.958Z,16.62
2023-02-17T05:21:00.370Z,16.64
2023-02-17T05:21:31.769Z,16.62
2023-02-17T05:22:03.169Z,16.62
2023-02-17T05:22:34.577Z,16.62
2023-02-17T05:23:05.998Z,16.61
2023-02-17T05:23:37.427Z,16.62
2023-02-17T05:24:08.849Z,16.62
2023-02-17T05:24:40.282Z,16.62
2023-02-17T05:25:11.695Z,16.64
2023-02-17T05:25:43.113Z,16.63
2023-02-17T05:26:14.515Z,16.62
2023-02-17T05:26:45.908Z,16.62
2023-02-17T05:27:17.318Z,16.62
2023-02-17T05:27:48.728Z,16.61
2023-02-17T05:28:20.121Z,16.61
2023-02-17T05:28:51.557Z,16.61
2023-02-17T05:29:23.022Z,16.61
2023-02-17T05:29:54.485Z,16.60
2023-02-17T05:30:25.935Z,16.60
2023-02-17T05:30:57.396Z,16.60
2023-02-17T05:31:28.985Z,16.60
2023-02-17T05:32:00.489Z,16.61
2023-02-17T05:32:31.919Z,16.60
2023-02-17T05:33:03.308Z,16.59
2023-02-17T05:33:34.732Z,16.60
2023-02-17T05:34:06.145Z,16.59
2023-02-17T05:34:37.563Z,16.59
2023-02-17T05:35:09.010Z,16.59
2023-02-17T05:35:40.429Z,16.59
2023-02-17T05:36:11.847Z,16.59
2023-02-17T05:36:43.278Z,16.60
2023-02-17T05:37:14.697Z,16.59
2023-02-17T05:37:46.097Z,16.59
2023-02-17T05:38:17.486Z,16.59
2023-02-17T05:38:48.904Z,16.59
2023-02-17T05:39:20.320Z,16.59
2023-02-17T05:39:51.730Z,16.59
2023-02-17T05:40:23.158Z,16.59
2023-02-17T05:40:54.567Z,16.60
2023-02-17T05:41:25.984Z,16.60
2023-02-17T05:41:57.395Z,16.59
2023-02-17T05:42:28.896Z,16.59
2023-02-17T05:43:00.358Z,16.60
2023-02-17T05:43:31.768Z,16.59
2023-02-17T05:44:03.198Z,16.59
2023-02-17T05:44:34.627Z,16.59
2023-02-17T05:45:06.040Z,16.60
2023-02-17T05:45:37.458Z,16.60
2023-02-17T05:46:09.182Z,16.60
2023-02-17T05:46:40.955Z,16.60
2023-02-17T05:47:12.412Z,16.60
2023-02-17T05:47:43.803Z,16.59
2023-02-17T05:48:15.190Z,16.59
2023-02-17T05:48:46.578Z,16.60
2023-02-17T05:49:17.990Z,16.59
2023-02-17T05:49:49.390Z,16.59
2023-02-17T05:50:20.779Z,16.58
2023-02-17T05:50:52.213Z,16.59
2023-02-17T05:51:23.603Z,16.59
2023-02-17T05:51:55.011Z,16.60
2023-02-17T05:52:26.428Z,16.59
2023-02-17T05:52:57.840Z,16.59
2023-02-17T05:53:29.245Z,16.59
2023-02-17T05:54:00.643Z,16.59
2023-02-17T05:54:32.083Z,16.59
2023-02-17T05:55:03.478Z,16.59
2023-02-17T05:55:34.890Z,16.59
2023-02-17T05:56:06.468Z,16.59
2023-02-17T05:56:38.052Z,16.59
2023-02-17T05:57:09.441Z,16.59
2023-02-17T05:57:40.837Z,16.59
2023-02-17T05:58:12.262Z,16.58
2023-02-17T05:58:43.672Z,16.58
2023-02-17T05:59:15.085Z,16.59
2023-02-17T05:59:46.507Z,16.58
2023-02-17T06:00:17.909Z,16.58
2023-02-17T06:00:49.306Z,16.59
2023-02-17T06:01:20.718Z,16.59
2023-02-17T06:01:52.133Z,16.58
2023-02-17T06:02:23.538Z,16.58
2023-02-17T06:02:54.953Z,16.58
2023-02-17T06:03:26.412Z,16.58
2023-02-17T06:03:57.817Z,16.57
2023-02-17T06:04:29.274Z,16.58
2023-02-17T06:05:00.796Z,16.57
2023-02-17T06:05:32.244Z,16.57
2023-02-17T06:06:03.723Z,16.58
2023-02-17T06:06:35.200Z,16.57
2023-02-17T06:07:06.626Z,16.57
2023-02-17T06:07:38.026Z,16.58
2023-02-17T06:08:09.448Z,16.58
2023-02-17T06:08:40.854Z,16.58
2023-02-17T06:09:12.261Z,16.56
2023-02-17T06:09:44.854Z,16.56
2023-02-17T06:10:17.291Z,16.57
2023-02-17T06:10:48.705Z,16.58
2023-02-17T06:11:20.118Z,16.57
2023-02-17T06:11:51.534Z,16.57
2023-02-17T06:12:22.952Z,16.58
2023-02-17T06:12:54.551Z,16.57
2023-02-17T06:13:25.972Z,16.58
2023-02-17T06:13:57.367Z,16.58
2023-02-17T06:14:28.814Z,16.58
2023-02-17T06:15:00.242Z,16.57
2023-02-17T06:15:31.650Z,16.57
2023-02-17T06:16:03.069Z,16.58
2023-02-17T06:16:34.563Z,16.57
2023-02-17T06:17:06.002Z,16.58
2023-02-17T06:17:37.434Z,16.58
2023-02-17T06:18:08.842Z,16.58
2023-02-17T06:18:40.251Z,16.58
2023-02-17T06:19:11.663Z,16.58
2023-02-17T06:19:43.113Z,16.57
2023-02-17T06:20:14.505Z,16.58
2023-02-17T06:20:45.896Z,16.58
2023-02-17T06:21:17.303Z,16.58
2023-02-17T06:21:48.727Z,16.57
2023-02-17T06:22:20.124Z,16.57
2023-02-17T06:22:51.564Z,16.57
2023-02-17T06:23:22.958Z,16.57
2023-02-17T06:23:54.348Z,16.57
2023-02-17T06:24:25.950Z,16.57
2023-02-17T06:24:57.399Z,16.57
2023-02-17T06:25:28.800Z,16.57
2023-02-17T06:26:00.212Z,16.57
2023-02-17T06:26:31.610Z,16.57
2023-02-17T06:27:03.034Z,16.55
2023-02-17T06:27:34.439Z,16.55
2023-02-17T06:28:05.887Z,16.56
2023-02-17T06:28:37.283Z,16.56
2023-02-17T06:29:08.698Z,16.56
2023-02-17T06:29:40.108Z,16.56
2023-02-17T06:30:11.553Z,16.56
2023-02-17T06:30:42.954Z,16.55
2023-02-17T06:31:14.490Z,16.55
2023-02-17T06:31:45.976Z,16.56
2023-02-17T06:32:17.444Z,16.56
2023-02-17T06:32:48.851Z,16.56
2023-02-17T06:33:20.325Z,16.56
2023-02-17T06:33:51.864Z,16.57
2023-02-17T06:34:23.270Z,16.57
2023-02-17T06:34:54.686Z,16.56
2023-02-17T06:35:26.107Z,16.56
2023-02-17T06:35:57.498Z,16.56
2023-02-17T06:36:28.917Z,16.56
2023-02-17T06:37:00.360Z,16.56
2023-02-17T06:37:31.759Z,16.56
2023-02-17T06:38:03.188Z,16.57
2023-02-17T06:38:34.619Z,16.56
2023-02-17T06:39:06.019Z,16.55
2023-02-17T06:39:37.423Z,16.55
2023-02-17T06:40:08.846Z,16.55
2023-02-17T06:40:40.261Z,16.55
2023-02-17T06:41:11.672Z,16.56
2023-02-17T06:41:43.089Z,16.56
2023-02-17T06:42:14.509Z,16.56
2023-02-17T06:42:45.929Z,16.56
2023-02-17T06:43:17.342Z,16.54
2023-02-17T06:43:48.805Z,16.55
2023-02-17T06:44:20.205Z,16.55
2023-02-17T06:44:51.619Z,16.55